Terminal Aerodrome Forecast
Issued by NWS

Home | Current Version | Previous Version | Text Only | Print | Product List | Glossary On
Versions: 1 2 3 4 5 6 7 8 9 10 11 12 13 14 15 16 17 18 19 20 21 22 23 24 25 26 27
514
FTUS46 KEKA 192353
TAFCEC
TAF
KCEC 192353Z 2000/2024 34022G32KT 6SM FU OVC018
     FM200500 35015G22KT 6SM FU BKN015
     FM200800 35010G16KT 4SM BR FU SCT003 BKN008
      TEMPO 2013/2015 2SM BR FU BKN003
     FM201600 33010G16KT 6SM FU BKN012
     FM202100 30014G22KT 6SM FU BKN020=

USA.gov is the U.S. government's official web portal to all federal, state and local government web resources and services.